createdAt,value
2023-02-09T00:00:17.541Z,-6.58
2023-02-09T00:02:45.240Z,-6.92
2023-02-09T00:05:12.141Z,-6.82
2023-02-09T02:06:13.357Z,-7.50
2023-02-09T02:08:45.555Z,-7.53
2023-02-09T02:11:12.679Z,-7.77
2023-02-09T02:13:39.305Z,-7.68
2023-02-09T02:16:35.233Z,-7.70
2023-02-09T02:19:08.991Z,-7.81
2023-02-09T02:22:13.144Z,-7.72
2023-02-09T02:25:13.025Z,-7.72
2023-02-09T02:27:55.971Z,-7.69
2023-02-09T02:30:43.536Z,-7.72
2023-02-09T02:33:19.468Z,-8.07
2023-02-09T02:36:01.106Z,-8.45
2023-02-09T02:38:36.685Z,-8.43
2023-02-09T02:41:52.132Z,-8.18
2023-02-09T02:44:19.654Z,-8.14
2023-02-09T02:46:51.822Z,-8.30
2023-02-09T02:49:37.366Z,-8.30
2023-02-09T02:52:08.221Z,-8.34
2023-02-09T02:54:39.925Z,-8.93
2023-02-09T02:57:14.059Z,-8.78
2023-02-09T03:00:04.008Z,-9.11
2023-02-09T03:02:35.000Z,-8.83
2023-02-09T03:05:05.200Z,-8.59
2023-02-09T03:07:32.938Z,-8.50
2023-02-09T03:10:01.469Z,-8.76
2023-02-09T03:13:08.562Z,-8.68
2023-02-09T03:15:42.443Z,-8.68
2023-02-09T03:18:21.414Z,-8.83
2023-02-09T03:21:08.854Z,-8.73
2023-02-09T03:23:41.993Z,-8.72
2023-02-09T03:26:14.358Z,-8.92
2023-02-09T03:28:44.468Z,-8.88
2023-02-09T03:31:11.519Z,-8.75
2023-02-09T03:33:39.471Z,-9.05
2023-02-09T03:36:15.138Z,-8.84
2023-02-09T03:38:41.971Z,-9.14
2023-02-09T03:41:08.833Z,-9.14
2023-02-09T03:43:54.025Z,-9.16
2023-02-09T03:46:20.966Z,-9.07
2023-02-09T03:48:47.935Z,-9.15
2023-02-09T03:51:14.535Z,-9.25
2023-02-09T03:53:41.110Z,-9.25
2023-02-09T03:56:10.565Z,-9.61
2023-02-09T03:58:37.269Z,-9.38
2023-02-09T04:01:05.976Z,-9.18
2023-02-09T04:03:32.704Z,-9.18
2023-02-09T04:05:59.886Z,-9.22
2023-02-09T04:08:29.707Z,-9.22
2023-02-09T04:10:57.777Z,-9.29
2023-02-09T04:13:24.829Z,-9.17
2023-02-09T04:15:51.866Z,-9.18
2023-02-09T04:18:18.897Z,-9.24
2023-02-09T04:20:45.863Z,-9.57
2023-02-09T04:23:12.919Z,-9.57
2023-02-09T04:25:39.730Z,-9.60
2023-02-09T04:28:07.284Z,-9.31
2023-02-09T04:30:33.975Z,-9.71
2023-02-09T04:33:00.643Z,-9.68
2023-02-09T04:35:27.254Z,-9.72
2023-02-09T04:37:53.884Z,-9.58
2023-02-09T04:40:20.597Z,-9.95
2023-02-09T04:42:48.045Z,-10.01
2023-02-09T04:45:14.793Z,-10.53
2023-02-09T04:47:41.370Z,-10.20
2023-02-09T04:50:08.323Z,-10.00
2023-02-09T04:52:34.936Z,-10.06
2023-02-09T04:55:01.623Z,-9.96
2023-02-09T04:57:46.876Z,-9.97
2023-02-09T05:00:14.123Z,-10.08
2023-02-09T05:02:40.738Z,-9.81
2023-02-09T05:05:07.725Z,-9.81
2023-02-09T05:07:34.399Z,-10.16
2023-02-09T05:10:01.032Z,-9.92
2023-02-09T05:12:27.719Z,-10.22
2023-02-09T05:14:54.283Z,-10.19
2023-02-09T05:17:21.226Z,-10.33
2023-02-09T05:19:48.513Z,-10.12
2023-02-09T05:22:15.619Z,-10.33
2023-02-09T05:24:42.210Z,-10.11
2023-02-09T05:27:08.877Z,-10.48
2023-02-09T05:29:35.667Z,-10.21
2023-02-09T05:32:02.407Z,-10.56
2023-02-09T05:34:29.047Z,-10.81
2023-02-09T05:36:55.646Z,-10.76
2023-02-09T05:39:22.881Z,-10.32
2023-02-09T05:42:08.035Z,-10.56
2023-02-09T05:44:34.726Z,-10.44
2023-02-09T05:47:01.339Z,-10.58
2023-02-09T05:49:27.935Z,-10.81
2023-02-09T05:51:54.527Z,-10.66
2023-02-09T05:54:21.235Z,-10.55
2023-02-09T05:56:48.077Z,-10.83
2023-02-09T05:59:14.711Z,-10.59
2023-02-09T06:01:41.385Z,-10.52
2023-02-09T06:04:09.224Z,-10.65
2023-02-09T06:06:36.329Z,-10.42
2023-02-09T06:09:03.703Z,-10.38
2023-02-09T06:11:30.343Z,-10.45
2023-02-09T06:13:56.974Z,-10.25
2023-02-09T06:16:23.850Z,-10.39
2023-02-09T06:18:50.490Z,-10.37
2023-02-09T06:21:17.357Z,-10.40
2023-02-09T06:23:44.030Z,-10.75
2023-02-09T06:26:13.165Z,-10.62
2023-02-09T06:28:40.209Z,-10.72
2023-02-09T06:31:07.534Z,-10.75
2023-02-09T06:33:35.474Z,-10.86
2023-02-09T06:36:03.253Z,-10.99
2023-02-09T06:38:34.479Z,-10.87
2023-02-09T06:41:01.161Z,-10.91
2023-02-09T06:43:28.096Z,-10.67
2023-02-09T06:45:54.793Z,-10.67
2023-02-09T06:48:21.548Z,-10.79
2023-02-09T06:50:48.403Z,-10.77
2023-02-09T06:53:16.177Z,-10.89
2023-02-09T06:55:42.834Z,-10.60
2023-02-09T06:58:09.676Z,-10.75
2023-02-09T07:00:36.360Z,-10.91
2023-02-09T07:03:03.374Z,-10.56
2023-02-09T07:05:31.531Z,-10.85
2023-02-09T07:07:58.261Z,-10.86
2023-02-09T07:10:25.212Z,-10.83
2023-02-09T07:12:51.897Z,-10.95
2023-02-09T07:15:18.722Z,-10.71
2023-02-09T07:17:45.409Z,-10.41
2023-02-09T07:20:12.571Z,-10.40
2023-02-09T07:22:39.378Z,-10.19
2023-02-09T07:25:06.587Z,-10.13
2023-02-09T07:27:33.458Z,-10.34
2023-02-09T07:30:01.155Z,-10.08
2023-02-09T07:32:28.406Z,-10.23
2023-02-09T07:34:55.042Z,-10.93
2023-02-09T07:37:21.697Z,-10.39
2023-02-09T07:39:48.604Z,-10.63
2023-02-09T07:42:15.517Z,-10.45
2023-02-09T07:44:51.568Z,-9.93
2023-02-09T07:47:18.230Z,-9.96
2023-02-09T07:49:44.862Z,-9.98
2023-02-09T07:52:11.680Z,-9.73
2023-02-09T07:54:38.294Z,-9.55
2023-02-09T07:57:07.469Z,-9.50
2023-02-09T07:59:34.111Z,-10.19
2023-02-09T08:02:01.142Z,-9.31
2023-02-09T08:04:27.820Z,-9.28
2023-02-09T08:06:55.320Z,-8.97
2023-02-09T08:09:21.922Z,-8.41
2023-02-09T08:11:53.653Z,-8.26
2023-02-09T08:14:30.774Z,-8.22
2023-02-09T08:17:27.943Z,-8.24
2023-02-09T08:20:00.730Z,-8.20
2023-02-09T08:22:31.827Z,-8.35
2023-02-09T08:25:01.703Z,-8.17
2023-02-09T08:27:28.957Z,-7.70
2023-02-09T08:29:55.852Z,-7.71
2023-02-09T08:32:22.846Z,-7.49
2023-02-09T08:34:49.524Z,-7.42
2023-02-09T08:37:16.166Z,-7.41
2023-02-09T08:39:44.671Z,-7.09
2023-02-09T08:42:11.374Z,-7.04
2023-02-09T08:44:37.998Z,-7.00
2023-02-09T08:47:04.842Z,-6.93
2023-02-09T08:49:31.569Z,-6.86
2023-02-09T08:51:58.208Z,-6.88
2023-02-09T08:54:25.474Z,-7.01
2023-02-09T08:56:52.160Z,-6.67
2023-02-09T08:59:20.150Z,-6.70
2023-02-09T09:01:46.840Z,-6.69
2023-02-09T09:04:13.587Z,-6.32
2023-02-09T09:06:40.166Z,-6.69
2023-02-09T09:09:06.824Z,-6.87
2023-02-09T09:11:33.658Z,-6.07
2023-02-09T09:14:00.267Z,-6.17
2023-02-09T09:16:26.982Z,-6.26
2023-02-09T09:18:53.599Z,-6.31
2023-02-09T09:21:20.289Z,-6.27
2023-02-09T09:23:48.078Z,-5.96
2023-02-09T09:26:15.881Z,-5.94
2023-02-09T09:28:43.184Z,-5.66
2023-02-09T09:31:12.762Z,-5.69
2023-02-09T09:33:39.521Z,-5.47
2023-02-09T09:36:07.187Z,-5.39
2023-02-09T09:38:38.034Z,-5.17
2023-02-09T09:41:17.311Z,-5.07
2023-02-09T09:43:44.097Z,-5.35
2023-02-09T09:46:16.656Z,-5.03
2023-02-09T09:48:47.119Z,-5.10
2023-02-09T09:51:21.137Z,-4.92
2023-02-09T09:53:53.124Z,-4.92
2023-02-09T09:56:21.380Z,-4.57
2023-02-09T09:58:49.852Z,-4.36
2023-02-09T10:01:20.350Z,-4.71
2023-02-09T10:03:47.382Z,-4.60
2023-02-09T10:06:17.500Z,-4.69
2023-02-09T10:08:51.711Z,-4.46
2023-02-09T10:11:23.854Z,-4.05
2023-02-09T10:13:55.561Z,-3.92
2023-02-09T10:16:25.512Z,-3.70
2023-02-09T10:18:59.928Z,-3.50
2023-02-09T10:21:30.439Z,-3.75
2023-02-09T10:24:00.136Z,-3.63
2023-02-09T10:26:30.977Z,-3.46
2023-02-09T10:29:07.115Z,-2.99
2023-02-09T10:31:38.744Z,-2.98
2023-02-09T10:34:08.518Z,-2.91
2023-02-09T10:37:10.598Z,-2.76
2023-02-09T10:39:37.319Z,-2.62
2023-02-09T10:42:19.194Z,-2.99
2023-02-09T10:44:50.414Z,-3.05
2023-02-09T10:47:20.008Z,-2.72
2023-02-09T10:50:13.577Z,-2.34
2023-02-09T10:53:14.342Z,-2.40
2023-02-09T10:55:43.030Z,-2.41
2023-02-09T10:58:09.579Z,-2.68
2023-02-09T11:00:42.201Z,-2.60
2023-02-09T11:03:27.566Z,-2.23
2023-02-09T11:05:58.814Z,-2.15
2023-02-09T11:08:42.809Z,-2.10
2023-02-09T11:11:22.639Z,-2.08
2023-02-09T11:13:49.330Z,-2.00
2023-02-09T11:16:15.882Z,-2.16
2023-02-09T11:18:47.129Z,-1.99
2023-02-09T11:21:40.211Z,-1.60
2023-02-09T11:24:26.502Z,-1.59
2023-02-09T11:27:17.916Z,-2.11
2023-02-09T11:30:15.294Z,-1.72
2023-02-09T11:33:02.789Z,-1.60
2023-02-09T11:35:46.149Z,-1.42
2023-02-09T11:38:17.482Z,-1.17
2023-02-09T11:40:50.306Z,-1.80
2023-02-09T11:43:32.287Z,-1.83
2023-02-09T11:46:05.673Z,-1.31
2023-02-09T11:48:38.095Z,-1.15
2023-02-09T11:51:11.803Z,-0.80
2023-02-09T11:53:55.515Z,-0.57
2023-02-09T11:56:27.943Z,-0.83
2023-02-09T11:58:57.507Z,-0.88
2023-02-09T12:01:50.814Z,-1.32
2023-02-09T12:04:41.789Z,-0.90
2023-02-09T12:07:40.375Z,-0.65
2023-02-09T12:10:09.939Z,-0.20
2023-02-09T12:13:20.765Z,-0.02
2023-02-09T12:15:58.954Z,-0.28
2023-02-09T12:18:32.940Z,0.14
2023-02-09T12:21:05.304Z,0.23
2023-02-09T12:23:41.884Z,0.21
2023-02-09T12:26:11.517Z,0.25
2023-02-09T12:28:41.149Z,0.34
2023-02-09T12:31:15.885Z,0.32
2023-02-09T12:33:45.465Z,0.37
2023-02-09T12:36:16.100Z,0.68
2023-02-09T12:38:51.584Z,0.89
2023-02-09T12:41:32.093Z,1.01
2023-02-09T12:44:25.088Z,0.68
2023-02-09T12:46:55.575Z,0.51
2023-02-09T12:49:27.989Z,0.07
2023-02-09T12:52:00.763Z,1.24
2023-02-09T12:54:42.474Z,2.22
2023-02-09T12:57:15.357Z,2.40
2023-02-09T12:59:51.360Z,2.74
2023-02-09T13:02:29.792Z,2.77
2023-02-09T13:05:14.758Z,3.14
2023-02-09T13:08:04.048Z,3.23
2023-02-09T13:10:41.164Z,3.26
2023-02-09T13:13:10.797Z,3.68
2023-02-09T13:15:56.202Z,3.79
2023-02-09T13:18:59.961Z,3.77
2023-02-09T13:21:27.215Z,4.24
2023-02-09T13:23:57.006Z,4.65
2023-02-09T13:26:26.742Z,4.13
2023-02-09T13:29:21.724Z,4.23
2023-02-09T13:32:03.536Z,4.19
2023-02-09T13:34:48.541Z,4.11
2023-02-09T13:37:33.506Z,5.04
2023-02-09T13:40:03.293Z,4.95
2023-02-09T13:42:35.036Z,4.37
2023-02-09T13:45:02.002Z,4.30
2023-02-09T13:47:28.989Z,4.49
2023-02-09T13:50:13.685Z,4.96
2023-02-09T13:52:40.677Z,5.24
2023-02-09T13:55:19.939Z,5.89
2023-02-09T13:57:56.108Z,5.91
2023-02-09T14:00:25.652Z,6.00
2023-02-09T14:02:57.111Z,5.60
2023-02-09T14:05:37.392Z,5.17
2023-02-09T14:08:04.374Z,4.76
2023-02-09T14:10:33.716Z,4.92
2023-02-09T14:13:15.486Z,5.36
2023-02-09T14:16:06.268Z,5.79
2023-02-09T14:18:51.121Z,6.07
2023-02-09T14:21:21.540Z,5.72
2023-02-09T14:24:03.064Z,6.13
2023-02-09T14:26:42.524Z,6.03
2023-02-09T14:29:30.571Z,5.78
2023-02-09T14:32:06.914Z,5.92
2023-02-09T14:34:35.784Z,5.76
2023-02-09T14:37:13.365Z,5.60
2023-02-09T14:39:54.872Z,6.03
2023-02-09T14:42:22.155Z,5.56
2023-02-09T14:44:57.687Z,6.05
2023-02-09T14:47:40.360Z,6.15
2023-02-09T14:50:15.017Z,5.95
2023-02-09T14:52:46.793Z,6.20
2023-02-09T14:55:40.591Z,5.88
2023-02-09T14:58:12.259Z,6.18
2023-02-09T15:00:38.861Z,6.14
2023-02-09T15:03:05.599Z,5.88
2023-02-09T15:05:32.396Z,4.93
2023-02-09T15:08:03.596Z,4.95
2023-02-09T15:10:35.229Z,4.72
2023-02-09T15:13:03.077Z,4.82
2023-02-09T15:15:29.781Z,5.30
2023-02-09T15:17:58.593Z,4.93
2023-02-09T15:20:25.762Z,4.99
2023-02-09T15:22:53.861Z,5.17
2023-02-09T15:25:21.257Z,5.33
2023-02-09T15:27:52.844Z,5.36
2023-02-09T15:30:26.376Z,5.31
2023-02-09T15:32:53.646Z,5.14
2023-02-09T15:35:23.614Z,4.65
2023-02-09T15:37:56.638Z,3.80
2023-02-09T15:40:45.716Z,3.80
2023-02-09T15:43:36.358Z,3.46
2023-02-09T15:46:21.556Z,2.70
2023-02-09T15:48:48.166Z,2.07
2023-02-09T15:51:15.498Z,1.82
2023-02-09T15:53:42.994Z,1.60
2023-02-09T15:56:11.593Z,1.29
2023-02-09T15:58:44.946Z,1.14
2023-02-09T16:01:16.723Z,0.94
2023-02-09T16:03:44.201Z,0.81
2023-02-09T16:06:13.128Z,0.68
2023-02-09T16:08:39.904Z,0.44
2023-02-09T16:11:17.145Z,0.26
2023-02-09T16:13:43.824Z,0.12
2023-02-09T16:16:16.997Z,0.07
2023-02-09T16:18:45.286Z,-0.56
2023-02-09T16:21:24.065Z,-0.20
2023-02-09T16:23:53.845Z,-0.31
2023-02-09T16:26:21.027Z,-0.68
2023-02-09T16:28:47.676Z,-0.60
2023-02-09T16:31:14.340Z,-0.69
2023-02-09T16:33:43.155Z,-1.01
2023-02-09T16:36:16.840Z,-0.86
2023-02-09T16:38:43.669Z,-1.22
2023-02-09T16:41:34.364Z,-1.38
2023-02-09T16:44:04.726Z,-1.29
2023-02-09T16:46:31.886Z,-1.27
2023-02-09T16:49:00.894Z,-1.77
2023-02-09T16:51:27.627Z,-1.96
2023-02-09T16:53:54.903Z,-1.76
2023-02-09T16:56:21.633Z,-1.61
2023-02-09T16:58:48.729Z,-1.77
2023-02-09T17:01:21.703Z,-1.95
2023-02-09T17:03:50.998Z,-1.83
2023-02-09T17:06:20.665Z,-1.94
2023-02-09T17:08:48.278Z,-2.17
2023-02-09T17:11:21.357Z,-1.97
2023-02-09T17:13:47.990Z,-2.21
2023-02-09T17:16:22.224Z,-2.22
2023-02-09T17:18:55.148Z,-2.25
2023-02-09T17:21:24.813Z,-2.75
2023-02-09T17:23:52.353Z,-2.75
2023-02-09T17:26:19.238Z,-2.67
2023-02-09T17:28:45.838Z,-3.00
2023-02-09T17:31:26.414Z,-2.84
2023-02-09T17:33:56.704Z,-2.84
2023-02-09T17:36:27.381Z,-2.95
2023-02-09T17:38:57.134Z,-2.83
2023-02-09T17:41:23.654Z,-2.79
2023-02-09T17:43:52.656Z,-3.05
2023-02-09T17:46:20.164Z,-3.15
2023-02-09T17:48:47.915Z,-3.15
2023-02-09T17:51:20.743Z,-3.11
2023-02-09T17:53:48.860Z,-3.15
2023-02-09T17:56:16.825Z,-3.86
2023-02-09T17:58:44.562Z,-3.20
2023-02-09T18:01:22.119Z,-3.25
2023-02-09T18:03:49.896Z,-3.61
2023-02-09T18:06:20.910Z,-3.47
2023-02-09T18:08:47.497Z,-3.71
2023-02-09T18:11:16.031Z,-3.53
2023-02-09T18:13:42.640Z,-3.78
2023-02-09T18:16:09.745Z,-3.79
2023-02-09T18:18:36.381Z,-3.82
2023-02-09T18:21:03.079Z,-3.90
2023-02-09T18:23:29.756Z,-3.87
2023-02-09T18:25:56.379Z,-3.85
2023-02-09T18:28:23.170Z,-3.99
2023-02-09T18:30:50.051Z,-4.13
2023-02-09T18:33:16.799Z,-4.10
2023-02-09T18:35:46.993Z,-4.13
2023-02-09T18:38:14.822Z,-4.13
2023-02-09T18:40:41.676Z,-4.39
2023-02-09T18:43:08.632Z,-4.32
2023-02-09T18:45:35.371Z,-4.24
2023-02-09T18:48:02.180Z,-4.37
2023-02-09T18:50:31.121Z,-4.37
2023-02-09T18:53:02.842Z,-4.44
2023-02-09T18:55:31.937Z,-4.40
2023-02-09T18:58:00.327Z,-4.43
2023-02-09T19:00:27.420Z,-4.46
2023-02-09T19:02:57.841Z,-4.64
2023-02-09T19:05:32.837Z,-4.44
2023-02-09T19:07:59.753Z,-5.08
2023-02-09T19:10:27.366Z,-4.91
2023-02-09T19:12:54.354Z,-5.04
2023-02-09T19:15:22.563Z,-4.90
2023-02-09T19:17:49.242Z,-5.04
2023-02-09T19:20:21.912Z,-4.90
2023-02-09T19:22:51.517Z,-4.61
2023-02-09T19:25:19.459Z,-4.77
2023-02-09T19:27:46.197Z,-4.76
2023-02-09T19:30:16.108Z,-4.76
2023-02-09T19:32:43.000Z,-5.47
2023-02-09T19:35:09.735Z,-5.51
2023-02-09T19:37:37.439Z,-5.32
2023-02-09T19:40:05.173Z,-5.29
2023-02-09T19:42:32.657Z,-5.09
2023-02-09T19:44:59.614Z,-5.12
2023-02-09T19:47:27.351Z,-5.26
2023-02-09T19:49:58.341Z,-5.40
2023-02-09T19:52:28.099Z,-5.17
2023-02-09T19:54:57.294Z,-5.26
2023-02-09T19:57:24.345Z,-5.15
2023-02-09T19:59:53.468Z,-5.00
2023-02-09T20:02:20.111Z,-5.30
2023-02-09T20:04:46.753Z,-5.58
2023-02-09T20:07:14.367Z,-5.81
2023-02-09T20:09:41.606Z,-5.92
2023-02-09T20:12:08.256Z,-6.13
2023-02-09T20:14:35.093Z,-5.69
2023-02-09T20:17:01.732Z,-5.84
2023-02-09T20:19:28.427Z,-5.94
2023-02-09T20:21:55.061Z,-6.07
2023-02-09T20:24:22.494Z,-5.68
2023-02-09T20:26:49.218Z,-6.00
2023-02-09T20:29:16.798Z,-5.70
2023-02-09T20:31:43.630Z,-5.72
2023-02-09T20:34:13.698Z,-5.86
2023-02-09T20:36:41.786Z,-6.24
2023-02-09T20:39:13.228Z,-6.20
2023-02-09T20:41:59.887Z,-6.09
2023-02-09T20:44:45.129Z,-5.92
2023-02-09T20:47:11.747Z,-6.10
2023-02-09T20:49:40.650Z,-6.15
2023-02-09T20:52:08.889Z,-6.13
2023-02-09T20:54:36.336Z,-6.15
2023-02-09T20:57:03.930Z,-6.32
2023-02-09T20:59:31.108Z,-6.53
2023-02-09T21:01:58.530Z,-6.20
2023-02-09T21:04:30.103Z,-6.15
2023-02-09T21:06:58.697Z,-6.38
2023-02-09T21:09:26.588Z,-6.50
2023-02-09T21:11:56.009Z,-6.40
2023-02-09T21:14:27.925Z,-6.38
2023-02-09T21:17:05.941Z,-6.41
2023-02-09T21:19:34.669Z,-6.46
2023-02-09T21:22:01.611Z,-6.71
2023-02-09T21:24:28.253Z,-6.47
2023-02-09T21:26:54.905Z,-6.37
2023-02-09T21:29:21.614Z,-6.38
2023-02-09T21:31:48.328Z,-6.69
2023-02-09T21:34:16.156Z,-6.87
2023-02-09T21:36:43.545Z,-6.64
2023-02-09T21:39:10.192Z,-6.80
2023-02-09T21:41:55.617Z,-6.83
2023-02-09T21:44:22.326Z,-6.89
2023-02-09T21:46:50.022Z,-6.81
2023-02-09T21:49:16.835Z,-6.78
2023-02-09T21:51:43.485Z,-6.63
2023-02-09T21:54:17.578Z,-6.60
2023-02-09T21:56:45.149Z,-6.61
2023-02-09T21:59:12.012Z,-6.85
2023-02-09T22:01:39.491Z,-6.52
2023-02-09T22:04:06.388Z,-6.63
2023-02-09T22:06:33.077Z,-6.78
2023-02-09T22:09:02.775Z,-6.73
2023-02-09T22:11:29.941Z,-6.91
2023-02-09T22:13:56.567Z,-6.87
2023-02-09T22:16:24.369Z,-6.85
2023-02-09T22:18:51.413Z,-7.10
2023-02-09T22:21:18.588Z,-7.08
2023-02-09T22:23:45.637Z,-7.38
2023-02-09T22:26:13.894Z,-7.07
2023-02-09T22:28:41.694Z,-7.05
2023-02-09T22:31:15.918Z,-7.30
2023-02-09T22:33:42.770Z,-7.23
2023-02-09T22:36:12.837Z,-7.08
2023-02-09T22:38:39.642Z,-7.25
2023-02-09T22:41:08.031Z,-7.16
2023-02-09T22:43:34.999Z,-6.98
2023-02-09T22:46:01.697Z,-7.25
2023-02-09T22:48:28.440Z,-7.24
2023-02-09T22:50:55.197Z,-7.03
2023-02-09T22:53:21.803Z,-7.22
2023-02-09T22:55:49.437Z,-7.03
2023-02-09T22:58:16.268Z,-7.48
2023-02-09T23:00:43.031Z,-8.00
2023-02-09T23:03:09.767Z,-7.93
2023-02-09T23:05:36.441Z,-7.86
2023-02-09T23:08:03.104Z,-8.06
2023-02-09T23:10:30.642Z,-7.83
2023-02-09T23:12:57.270Z,-8.00
2023-02-09T23:15:23.934Z,-8.09
2023-02-09T23:17:50.727Z,-8.05
2023-02-09T23:20:17.761Z,-8.05
2023-02-09T23:22:44.594Z,-8.10
2023-02-09T23:25:11.194Z,-7.83
2023-02-09T23:27:37.768Z,-7.99
2023-02-09T23:30:04.755Z,-7.86
2023-02-09T23:32:31.321Z,-7.79
2023-02-09T23:37:37.511Z,-7.69
2023-02-09T23:40:04.850Z,-7.80
2023-02-09T23:42:31.519Z,-8.22
2023-02-09T23:44:58.304Z,-8.31
2023-02-09T23:47:24.953Z,-8.58
2023-02-09T23:49:51.512Z,-8.09
2023-02-09T23:52:18.243Z,-8.16
2023-02-09T23:54:44.799Z,-8.13
2023-02-09T23:57:11.472Z,-7.93
2023-02-09T23:59:38.731Z,-7.95
